sensor_id;sensor_type;location;lat;lon;timestamp;P1;durP1;ratioP1;P2;durP2;ratioP2
79074;SDS011;68476;42.710;23.388;2023-04-15T00:02:00;10.57;;;6.30;;
79074;SDS011;68476;42.710;23.388;2023-04-15T00:04:26;11.15;;;6.30;;
79074;SDS011;68476;42.710;23.388;2023-04-15T00:06:51;9.45;;;6.25;;
79074;SDS011;68476;42.710;23.388;2023-04-15T00:09:17;8.88;;;5.55;;
79074;SDS011;68476;42.710;23.388;2023-04-15T00:11:43;10.10;;;5.05;;
79074;SDS011;68476;42.710;23.388;2023-04-15T00:14:08;6.30;;;4.20;;
79074;SDS011;68476;42.710;23.388;2023-04-15T00:16:33;8.07;;;4.90;;
79074;SDS011;68476;42.710;23.388;2023-04-15T00:18:59;7.63;;;5.10;;
79074;SDS011;68476;42.710;23.388;2023-04-15T00:21:24;8.15;;;4.60;;
79074;SDS011;68476;42.710;23.388;2023-04-15T00:23:49;8.87;;;5.43;;
79074;SDS011;68476;42.710;23.388;2023-04-15T00:26:17;7.18;;;5.07;;
79074;SDS011;68476;42.710;23.388;2023-04-15T00:28:43;9.32;;;5.72;;
79074;SDS011;68476;42.710;23.388;2023-04-15T00:31:09;9.55;;;5.75;;
79074;SDS011;68476;42.710;23.388;2023-04-15T00:33:34;10.43;;;5.53;;
79074;SDS011;68476;42.710;23.388;2023-04-15T00:36:00;11.80;;;6.50;;
79074;SDS011;68476;42.710;23.388;2023-04-15T00:38:26;8.05;;;5.10;;
79074;SDS011;68476;42.710;23.388;2023-04-15T00:40:52;7.90;;;5.80;;
79074;SDS011;68476;42.710;23.388;2023-04-15T00:43:17;9.18;;;5.80;;
79074;SDS011;68476;42.710;23.388;2023-04-15T00:45:43;10.02;;;6.20;;
79074;SDS011;68476;42.710;23.388;2023-04-15T00:48:08;8.43;;;5.00;;
79074;SDS011;68476;42.710;23.388;2023-04-15T00:50:34;9.18;;;5.07;;
79074;SDS011;68476;42.710;23.388;2023-04-15T00:52:59;8.52;;;5.45;;
79074;SDS011;68476;42.710;23.388;2023-04-15T00:55:25;7.72;;;4.70;;
79074;SDS011;68476;42.710;23.388;2023-04-15T00:57:50;9.00;;;4.47;;
79074;SDS011;68476;42.710;23.388;2023-04-15T01:00:16;9.82;;;6.00;;
79074;SDS011;68476;42.710;23.388;2023-04-15T01:02:42;12.20;;;6.55;;
79074;SDS011;68476;42.710;23.388;2023-04-15T01:05:07;11.32;;;6.43;;
79074;SDS011;68476;42.710;23.388;2023-04-15T01:07:33;8.82;;;5.60;;
79074;SDS011;68476;42.710;23.388;2023-04-15T01:09:58;10.10;;;6.35;;
79074;SDS011;68476;42.710;23.388;2023-04-15T01:12:25;12.57;;;6.30;;
79074;SDS011;68476;42.710;23.388;2023-04-15T01:14:51;10.57;;;6.22;;
79074;SDS011;68476;42.710;23.388;2023-04-15T01:17:17;11.27;;;6.30;;
79074;SDS011;68476;42.710;23.388;2023-04-15T01:19:43;10.38;;;6.53;;
79074;SDS011;68476;42.710;23.388;2023-04-15T01:22:08;11.80;;;6.40;;
79074;SDS011;68476;42.710;23.388;2023-04-15T01:24:34;12.80;;;6.13;;
79074;SDS011;68476;42.710;23.388;2023-04-15T01:26:59;9.77;;;5.93;;
79074;SDS011;68476;42.710;23.388;2023-04-15T01:29:25;11.00;;;6.18;;
79074;SDS011;68476;42.710;23.388;2023-04-15T01:31:51;10.55;;;6.55;;
79074;SDS011;68476;42.710;23.388;2023-04-15T01:34:17;12.55;;;6.15;;
79074;SDS011;68476;42.710;23.388;2023-04-15T01:36:42;14.18;;;8.27;;
79074;SDS011;68476;42.710;23.388;2023-04-15T01:39:08;12.73;;;8.00;;
79074;SDS011;68476;42.710;23.388;2023-04-15T01:41:33;13.52;;;7.97;;
79074;SDS011;68476;42.710;23.388;2023-04-15T01:43:59;13.80;;;8.60;;
79074;SDS011;68476;42.710;23.388;2023-04-15T01:46:24;16.02;;;9.32;;
79074;SDS011;68476;42.710;23.388;2023-04-15T01:48:49;13.85;;;7.93;;
79074;SDS011;68476;42.710;23.388;2023-04-15T01:51:15;10.27;;;7.00;;
79074;SDS011;68476;42.710;23.388;2023-04-15T01:53:40;8.77;;;5.85;;
79074;SDS011;68476;42.710;23.388;2023-04-15T01:56:06;11.90;;;6.57;;
79074;SDS011;68476;42.710;23.388;2023-04-15T01:58:31;12.55;;;6.45;;
79074;SDS011;68476;42.710;23.388;2023-04-15T02:00:56;8.10;;;5.47;;
79074;SDS011;68476;42.710;23.388;2023-04-15T02:03:23;9.20;;;5.57;;
79074;SDS011;68476;42.710;23.388;2023-04-15T02:05:48;9.57;;;5.30;;
79074;SDS011;68476;42.710;23.388;2023-04-15T02:08:15;9.35;;;5.55;;
79074;SDS011;68476;42.710;23.388;2023-04-15T02:10:40;8.88;;;4.90;;
79074;SDS011;68476;42.710;23.388;2023-04-15T02:13:05;7.67;;;5.03;;
79074;SDS011;68476;42.710;23.388;2023-04-15T02:15:31;8.75;;;5.15;;
79074;SDS011;68476;42.710;23.388;2023-04-15T02:17:57;6.70;;;4.90;;
79074;SDS011;68476;42.710;23.388;2023-04-15T02:20:24;7.57;;;4.75;;
79074;SDS011;68476;42.710;23.388;2023-04-15T02:22:50;7.07;;;4.40;;
79074;SDS011;68476;42.710;23.388;2023-04-15T02:25:16;6.90;;;4.40;;
79074;SDS011;68476;42.710;23.388;2023-04-15T02:27:41;5.50;;;3.85;;
79074;SDS011;68476;42.710;23.388;2023-04-15T02:30:08;7.20;;;3.90;;
79074;SDS011;68476;42.710;23.388;2023-04-15T02:32:34;6.93;;;4.55;;
79074;SDS011;68476;42.710;23.388;2023-04-15T02:35:06;6.97;;;4.00;;
79074;SDS011;68476;42.710;23.388;2023-04-15T02:37:31;7.10;;;4.45;;
79074;SDS011;68476;42.710;23.388;2023-04-15T02:40:00;9.38;;;4.47;;
79074;SDS011;68476;42.710;23.388;2023-04-15T02:42:25;6.30;;;3.93;;
79074;SDS011;68476;42.710;23.388;2023-04-15T02:44:52;7.15;;;4.18;;
79074;SDS011;68476;42.710;23.388;2023-04-15T02:47:18;7.70;;;4.50;;
79074;SDS011;68476;42.710;23.388;2023-04-15T02:49:44;7.47;;;4.30;;
79074;SDS011;68476;42.710;23.388;2023-04-15T02:52:09;7.77;;;4.17;;
79074;SDS011;68476;42.710;23.388;2023-04-15T02:54:34;7.67;;;4.57;;
79074;SDS011;68476;42.710;23.388;2023-04-15T02:57:00;5.32;;;3.95;;
79074;SDS011;68476;42.710;23.388;2023-04-15T02:59:25;5.50;;;3.75;;
79074;SDS011;68476;42.710;23.388;2023-04-15T03:01:50;7.17;;;3.60;;
79074;SDS011;68476;42.710;23.388;2023-04-15T03:04:16;7.37;;;4.30;;
79074;SDS011;68476;42.710;23.388;2023-04-15T03:06:41;7.73;;;4.77;;
79074;SDS011;68476;42.710;23.388;2023-04-15T03:09:06;7.78;;;4.43;;
79074;SDS011;68476;42.710;23.388;2023-04-15T03:11:31;7.90;;;4.32;;
79074;SDS011;68476;42.710;23.388;2023-04-15T03:13:57;6.13;;;4.07;;
79074;SDS011;68476;42.710;23.388;2023-04-15T03:16:23;8.43;;;4.30;;
79074;SDS011;68476;42.710;23.388;2023-04-15T03:18:48;9.05;;;4.82;;
79074;SDS011;68476;42.710;23.388;2023-04-15T03:21:13;6.70;;;4.03;;
79074;SDS011;68476;42.710;23.388;2023-04-15T03:23:38;6.35;;;4.00;;
79074;SDS011;68476;42.710;23.388;2023-04-15T03:26:04;6.67;;;3.93;;
79074;SDS011;68476;42.710;23.388;2023-04-15T03:28:29;7.50;;;4.30;;
79074;SDS011;68476;42.710;23.388;2023-04-15T03:30:55;6.78;;;4.53;;
79074;SDS011;68476;42.710;23.388;2023-04-15T03:33:20;9.05;;;5.00;;
79074;SDS011;68476;42.710;23.388;2023-04-15T03:35:45;9.95;;;4.97;;
79074;SDS011;68476;42.710;23.388;2023-04-15T03:38:11;6.07;;;4.00;;
79074;SDS011;68476;42.710;23.388;2023-04-15T03:40:37;6.95;;;3.47;;
79074;SDS011;68476;42.710;23.388;2023-04-15T03:43:02;6.00;;;4.53;;
79074;SDS011;68476;42.710;23.388;2023-04-15T03:45:27;10.03;;;5.67;;
79074;SDS011;68476;42.710;23.388;2023-04-15T03:47:52;8.33;;;5.63;;
79074;SDS011;68476;42.710;23.388;2023-04-15T03:50:18;7.47;;;5.17;;
79074;SDS011;68476;42.710;23.388;2023-04-15T03:52:43;7.47;;;5.00;;
79074;SDS011;68476;42.710;23.388;2023-04-15T03:55:09;7.60;;;5.18;;
79074;SDS011;68476;42.710;23.388;2023-04-15T03:57:34;7.47;;;4.65;;
79074;SDS011;68476;42.710;23.388;2023-04-15T04:00:06;7.30;;;4.82;;
79074;SDS011;68476;42.710;23.388;2023-04-15T04:02:31;9.73;;;5.43;;
79074;SDS011;68476;42.710;23.388;2023-04-15T04:04:56;8.20;;;4.87;;
79074;SDS011;68476;42.710;23.388;2023-04-15T04:07:22;10.70;;;4.60;;
79074;SDS011;68476;42.710;23.388;2023-04-15T04:09:47;7.13;;;4.50;;
79074;SDS011;68476;42.710;23.388;2023-04-15T04:12:13;8.00;;;5.13;;
79074;SDS011;68476;42.710;23.388;2023-04-15T04:14:38;7.82;;;4.75;;
79074;SDS011;68476;42.710;23.388;2023-04-15T04:17:03;7.80;;;4.80;;
79074;SDS011;68476;42.710;23.388;2023-04-15T04:19:28;6.97;;;4.67;;
79074;SDS011;68476;42.710;23.388;2023-04-15T04:21:54;9.57;;;5.18;;
79074;SDS011;68476;42.710;23.388;2023-04-15T04:24:19;8.05;;;5.47;;
79074;SDS011;68476;42.710;23.388;2023-04-15T04:26:45;7.78;;;4.93;;
79074;SDS011;68476;42.710;23.388;2023-04-15T04:29:10;9.50;;;5.63;;
79074;SDS011;68476;42.710;23.388;2023-04-15T04:31:35;8.67;;;5.10;;
79074;SDS011;68476;42.710;23.388;2023-04-15T04:34:01;9.38;;;5.70;;
79074;SDS011;68476;42.710;23.388;2023-04-15T04:36:26;8.38;;;5.82;;
79074;SDS011;68476;42.710;23.388;2023-04-15T04:38:51;10.33;;;6.20;;
79074;SDS011;68476;42.710;23.388;2023-04-15T04:41:16;10.20;;;6.57;;
79074;SDS011;68476;42.710;23.388;2023-04-15T04:43:42;10.32;;;6.57;;
79074;SDS011;68476;42.710;23.388;2023-04-15T04:46:07;10.25;;;6.63;;
79074;SDS011;68476;42.710;23.388;2023-04-15T04:48:32;9.07;;;6.53;;
79074;SDS011;68476;42.710;23.388;2023-04-15T04:50:58;10.68;;;7.65;;
79074;SDS011;68476;42.710;23.388;2023-04-15T04:53:23;12.57;;;7.70;;
79074;SDS011;68476;42.710;23.388;2023-04-15T04:55:48;11.27;;;6.73;;
79074;SDS011;68476;42.710;23.388;2023-04-15T04:58:13;12.77;;;7.00;;
79074;SDS011;68476;42.710;23.388;2023-04-15T05:00:39;8.47;;;5.90;;
79074;SDS011;68476;42.710;23.388;2023-04-15T05:03:04;11.15;;;6.30;;
79074;SDS011;68476;42.710;23.388;2023-04-15T05:05:30;10.45;;;5.90;;
79074;SDS011;68476;42.710;23.388;2023-04-15T05:07:55;7.95;;;5.75;;
79074;SDS011;68476;42.710;23.388;2023-04-15T05:10:20;9.35;;;5.63;;
79074;SDS011;68476;42.710;23.388;2023-04-15T05:12:46;10.00;;;5.63;;
79074;SDS011;68476;42.710;23.388;2023-04-15T05:15:11;9.00;;;5.90;;
79074;SDS011;68476;42.710;23.388;2023-04-15T05:17:36;9.95;;;5.75;;
79074;SDS011;68476;42.710;23.388;2023-04-15T05:20:02;11.37;;;7.57;;
79074;SDS011;68476;42.710;23.388;2023-04-15T05:22:27;16.05;;;12.48;;
79074;SDS011;68476;42.710;23.388;2023-04-15T05:24:53;11.63;;;8.60;;
79074;SDS011;68476;42.710;23.388;2023-04-15T05:27:18;13.57;;;8.25;;
79074;SDS011;68476;42.710;23.388;2023-04-15T05:29:43;10.73;;;5.77;;
79074;SDS011;68476;42.710;23.388;2023-04-15T05:32:09;9.07;;;5.28;;
79074;SDS011;68476;42.710;23.388;2023-04-15T05:34:34;9.98;;;5.95;;
79074;SDS011;68476;42.710;23.388;2023-04-15T05:37:00;10.02;;;6.05;;
79074;SDS011;68476;42.710;23.388;2023-04-15T05:39:25;9.47;;;5.10;;
79074;SDS011;68476;42.710;23.388;2023-04-15T05:41:50;8.20;;;5.35;;
79074;SDS011;68476;42.710;23.388;2023-04-15T05:44:16;8.68;;;5.07;;
79074;SDS011;68476;42.710;23.388;2023-04-15T05:46:41;8.00;;;5.25;;
79074;SDS011;68476;42.710;23.388;2023-04-15T05:49:07;9.18;;;6.10;;
79074;SDS011;68476;42.710;23.388;2023-04-15T05:51:32;9.00;;;5.20;;
79074;SDS011;68476;42.710;23.388;2023-04-15T05:53:57;10.93;;;6.50;;
79074;SDS011;68476;42.710;23.388;2023-04-15T05:56:23;8.67;;;5.40;;
79074;SDS011;68476;42.710;23.388;2023-04-15T05:58:48;5.85;;;4.07;;
79074;SDS011;68476;42.710;23.388;2023-04-15T06:01:14;6.78;;;3.72;;
79074;SDS011;68476;42.710;23.388;2023-04-15T06:03:39;6.90;;;4.03;;
79074;SDS011;68476;42.710;23.388;2023-04-15T06:06:05;6.13;;;3.65;;
79074;SDS011;68476;42.710;23.388;2023-04-15T06:08:30;9.10;;;4.35;;
79074;SDS011;68476;42.710;23.388;2023-04-15T06:10:55;8.57;;;3.92;;
79074;SDS011;68476;42.710;23.388;2023-04-15T06:13:22;7.53;;;3.83;;
79074;SDS011;68476;42.710;23.388;2023-04-15T06:15:47;5.07;;;3.40;;
79074;SDS011;68476;42.710;23.388;2023-04-15T06:18:13;5.43;;;3.45;;
79074;SDS011;68476;42.710;23.388;2023-04-15T06:20:38;6.27;;;3.83;;
79074;SDS011;68476;42.710;23.388;2023-04-15T06:23:04;7.60;;;3.83;;
79074;SDS011;68476;42.710;23.388;2023-04-15T06:25:29;5.47;;;3.40;;
79074;SDS011;68476;42.710;23.388;2023-04-15T06:27:54;6.43;;;3.43;;
79074;SDS011;68476;42.710;23.388;2023-04-15T06:30:20;6.55;;;3.30;;
79074;SDS011;68476;42.710;23.388;2023-04-15T06:32:45;5.93;;;3.73;;
79074;SDS011;68476;42.710;23.388;2023-04-15T06:35:11;5.00;;;3.70;;
79074;SDS011;68476;42.710;23.388;2023-04-15T06:37:36;5.45;;;3.28;;
79074;SDS011;68476;42.710;23.388;2023-04-15T06:40:01;5.10;;;2.90;;
79074;SDS011;68476;42.710;23.388;2023-04-15T06:42:29;6.15;;;3.50;;
79074;SDS011;68476;42.710;23.388;2023-04-15T06:44:54;5.03;;;3.70;;
79074;SDS011;68476;42.710;23.388;2023-04-15T06:47:20;6.20;;;3.25;;
79074;SDS011;68476;42.710;23.388;2023-04-15T06:49:45;5.65;;;3.60;;
79074;SDS011;68476;42.710;23.388;2023-04-15T06:52:10;7.20;;;3.88;;
79074;SDS011;68476;42.710;23.388;2023-04-15T06:54:36;6.85;;;4.20;;
79074;SDS011;68476;42.710;23.388;2023-04-15T06:57:01;5.60;;;3.80;;
79074;SDS011;68476;42.710;23.388;2023-04-15T06:59:27;6.30;;;3.88;;
79074;SDS011;68476;42.710;23.388;2023-04-15T07:01:52;6.32;;;4.03;;
79074;SDS011;68476;42.710;23.388;2023-04-15T07:04:18;6.13;;;3.58;;
79074;SDS011;68476;42.710;23.388;2023-04-15T07:06:44;7.68;;;3.03;;
79074;SDS011;68476;42.710;23.388;2023-04-15T07:09:10;6.07;;;3.70;;
79074;SDS011;68476;42.710;23.388;2023-04-15T07:11:35;5.85;;;3.20;;
79074;SDS011;68476;42.710;23.388;2023-04-15T07:14:00;5.55;;;3.95;;
79074;SDS011;68476;42.710;23.388;2023-04-15T07:16:26;4.47;;;2.65;;
79074;SDS011;68476;42.710;23.388;2023-04-15T07:18:51;5.90;;;3.17;;
79074;SDS011;68476;42.710;23.388;2023-04-15T07:21:16;6.87;;;3.50;;
79074;SDS011;68476;42.710;23.388;2023-04-15T07:23:41;6.57;;;3.47;;
79074;SDS011;68476;42.710;23.388;2023-04-15T07:26:07;6.77;;;3.30;;
79074;SDS011;68476;42.710;23.388;2023-04-15T07:28:32;5.25;;;3.38;;
79074;SDS011;68476;42.710;23.388;2023-04-15T07:30:57;5.80;;;3.23;;
79074;SDS011;68476;42.710;23.388;2023-04-15T07:33:23;5.55;;;3.70;;
79074;SDS011;68476;42.710;23.388;2023-04-15T07:35:48;5.18;;;3.33;;
79074;SDS011;68476;42.710;23.388;2023-04-15T07:38:14;6.35;;;3.45;;
79074;SDS011;68476;42.710;23.388;2023-04-15T07:40:39;9.05;;;4.13;;
79074;SDS011;68476;42.710;23.388;2023-04-15T07:43:04;6.22;;;3.78;;
79074;SDS011;68476;42.710;23.388;2023-04-15T07:45:30;5.25;;;3.78;;
79074;SDS011;68476;42.710;23.388;2023-04-15T07:47:55;8.55;;;4.57;;
79074;SDS011;68476;42.710;23.388;2023-04-15T07:50:21;7.13;;;4.10;;
79074;SDS011;68476;42.710;23.388;2023-04-15T07:52:47;6.55;;;4.63;;
79074;SDS011;68476;42.710;23.388;2023-04-15T07:55:12;8.20;;;4.03;;
79074;SDS011;68476;42.710;23.388;2023-04-15T07:57:38;6.95;;;4.20;;
79074;SDS011;68476;42.710;23.388;2023-04-15T08:00:04;6.32;;;4.15;;
79074;SDS011;68476;42.710;23.388;2023-04-15T08:02:31;6.63;;;3.90;;
79074;SDS011;68476;42.710;23.388;2023-04-15T08:04:56;6.55;;;4.53;;
79074;SDS011;68476;42.710;23.388;2023-04-15T08:07:22;6.65;;;4.30;;
79074;SDS011;68476;42.710;23.388;2023-04-15T08:09:48;6.32;;;4.30;;
79074;SDS011;68476;42.710;23.388;2023-04-15T08:12:13;6.43;;;3.95;;
79074;SDS011;68476;42.710;23.388;2023-04-15T08:14:39;6.60;;;4.10;;
79074;SDS011;68476;42.710;23.388;2023-04-15T08:17:04;7.03;;;3.92;;
79074;SDS011;68476;42.710;23.388;2023-04-15T08:19:30;5.47;;;3.58;;
79074;SDS011;68476;42.710;23.388;2023-04-15T08:21:55;6.27;;;3.90;;
79074;SDS011;68476;42.710;23.388;2023-04-15T08:24:21;7.35;;;3.80;;
79074;SDS011;68476;42.710;23.388;2023-04-15T08:26:46;5.82;;;4.00;;
79074;SDS011;68476;42.710;23.388;2023-04-15T08:29:12;7.30;;;3.80;;
79074;SDS011;68476;42.710;23.388;2023-04-15T08:31:37;6.95;;;3.97;;
79074;SDS011;68476;42.710;23.388;2023-04-15T08:34:02;6.57;;;3.63;;
79074;SDS011;68476;42.710;23.388;2023-04-15T08:36:28;7.13;;;3.70;;
79074;SDS011;68476;42.710;23.388;2023-04-15T08:38:53;5.82;;;3.40;;
79074;SDS011;68476;42.710;23.388;2023-04-15T08:41:22;7.17;;;3.43;;
79074;SDS011;68476;42.710;23.388;2023-04-15T08:43:51;5.25;;;3.22;;
79074;SDS011;68476;42.710;23.388;2023-04-15T08:46:17;6.50;;;3.28;;
79074;SDS011;68476;42.710;23.388;2023-04-15T08:48:43;6.38;;;3.30;;
79074;SDS011;68476;42.710;23.388;2023-04-15T08:51:10;4.43;;;2.88;;
79074;SDS011;68476;42.710;23.388;2023-04-15T08:53:40;4.68;;;2.78;;
79074;SDS011;68476;42.710;23.388;2023-04-15T08:56:05;4.27;;;2.57;;
79074;SDS011;68476;42.710;23.388;2023-04-15T08:58:31;4.00;;;2.80;;
79074;SDS011;68476;42.710;23.388;2023-04-15T09:00:57;5.22;;;2.58;;
79074;SDS011;68476;42.710;23.388;2023-04-15T09:03:22;5.43;;;2.90;;
79074;SDS011;68476;42.710;23.388;2023-04-15T09:05:49;6.10;;;2.50;;
79074;SDS011;68476;42.710;23.388;2023-04-15T09:08:14;3.55;;;2.70;;
79074;SDS011;68476;42.710;23.388;2023-04-15T09:10:40;4.35;;;2.20;;
79074;SDS011;68476;42.710;23.388;2023-04-15T09:13:05;4.68;;;1.98;;
79074;SDS011;68476;42.710;23.388;2023-04-15T09:15:30;4.05;;;2.30;;
79074;SDS011;68476;42.710;23.388;2023-04-15T09:17:56;5.15;;;2.33;;
79074;SDS011;68476;42.710;23.388;2023-04-15T09:20:22;4.00;;;2.28;;
79074;SDS011;68476;42.710;23.388;2023-04-15T09:22:47;4.63;;;2.17;;
79074;SDS011;68476;42.710;23.388;2023-04-15T09:27:48;5.28;;;2.00;;
79074;SDS011;68476;42.710;23.388;2023-04-15T09:30:13;3.97;;;2.20;;
79074;SDS011;68476;42.710;23.388;2023-04-15T09:32:47;4.72;;;2.10;;
79074;SDS011;68476;42.710;23.388;2023-04-15T09:35:13;5.78;;;2.00;;
79074;SDS011;68476;42.710;23.388;2023-04-15T09:37:38;4.07;;;2.05;;
79074;SDS011;68476;42.710;23.388;2023-04-15T09:40:03;5.33;;;2.30;;
79074;SDS011;68476;42.710;23.388;2023-04-15T09:42:29;4.78;;;1.92;;
79074;SDS011;68476;42.710;23.388;2023-04-15T09:44:54;3.65;;;1.95;;
79074;SDS011;68476;42.710;23.388;2023-04-15T09:47:29;4.10;;;2.00;;
79074;SDS011;68476;42.710;23.388;2023-04-15T09:49:56;2.92;;;1.88;;
79074;SDS011;68476;42.710;23.388;2023-04-15T09:52:21;3.05;;;1.90;;
79074;SDS011;68476;42.710;23.388;2023-04-15T09:54:46;5.20;;;2.00;;
79074;SDS011;68476;42.710;23.388;2023-04-15T09:57:11;4.30;;;1.80;;
79074;SDS011;68476;42.710;23.388;2023-04-15T09:59:37;3.90;;;1.90;;
79074;SDS011;68476;42.710;23.388;2023-04-15T10:02:05;3.55;;;1.90;;
79074;SDS011;68476;42.710;23.388;2023-04-15T10:04:32;4.20;;;1.90;;
79074;SDS011;68476;42.710;23.388;2023-04-15T10:06:59;2.80;;;2.00;;
79074;SDS011;68476;42.710;23.388;2023-04-15T10:09:25;4.72;;;2.20;;
79074;SDS011;68476;42.710;23.388;2023-04-15T10:11:50;2.47;;;1.70;;
79074;SDS011;68476;42.710;23.388;2023-04-15T10:14:16;4.13;;;1.90;;
79074;SDS011;68476;42.710;23.388;2023-04-15T10:16:42;3.83;;;1.80;;
79074;SDS011;68476;42.710;23.388;2023-04-15T10:19:12;4.10;;;1.90;;
79074;SDS011;68476;42.710;23.388;2023-04-15T10:21:38;4.78;;;2.10;;
79074;SDS011;68476;42.710;23.388;2023-04-15T10:24:04;4.00;;;2.00;;
79074;SDS011;68476;42.710;23.388;2023-04-15T10:26:30;3.05;;;1.90;;
79074;SDS011;68476;42.710;23.388;2023-04-15T10:28:55;3.80;;;1.90;;
79074;SDS011;68476;42.710;23.388;2023-04-15T10:31:21;3.00;;;1.92;;
79074;SDS011;68476;42.710;23.388;2023-04-15T10:33:46;3.00;;;1.92;;
79074;SDS011;68476;42.710;23.388;2023-04-15T10:36:12;3.00;;;1.80;;
79074;SDS011;68476;42.710;23.388;2023-04-15T10:38:42;3.00;;;1.80;;
79074;SDS011;68476;42.710;23.388;2023-04-15T10:41:11;4.28;;;1.65;;
79074;SDS011;68476;42.710;23.388;2023-04-15T10:43:37;2.50;;;1.50;;
79074;SDS011;68476;42.710;23.388;2023-04-15T10:46:03;2.77;;;1.50;;
79074;SDS011;68476;42.710;23.388;2023-04-15T10:48:29;3.00;;;1.73;;
79074;SDS011;68476;42.710;23.388;2023-04-15T10:50:55;4.65;;;1.80;;
79074;SDS011;68476;42.710;23.388;2023-04-15T10:53:29;3.65;;;1.70;;
79074;SDS011;68476;42.710;23.388;2023-04-15T10:55:56;4.95;;;2.05;;
79074;SDS011;68476;42.710;23.388;2023-04-15T10:58:24;3.15;;;1.70;;
79074;SDS011;68476;42.710;23.388;2023-04-15T11:00:50;3.40;;;1.73;;
79074;SDS011;68476;42.710;23.388;2023-04-15T11:03:37;3.75;;;1.85;;
79074;SDS011;68476;42.710;23.388;2023-04-15T11:06:03;4.72;;;1.70;;
79074;SDS011;68476;42.710;23.388;2023-04-15T11:11:12;2.95;;;1.60;;
79074;SDS011;68476;42.710;23.388;2023-04-15T11:13:46;3.37;;;1.70;;
79074;SDS011;68476;42.710;23.388;2023-04-15T11:16:11;3.15;;;1.90;;
79074;SDS011;68476;42.710;23.388;2023-04-15T11:18:36;3.83;;;1.80;;
79074;SDS011;68476;42.710;23.388;2023-04-15T11:21:05;3.03;;;1.80;;
79074;SDS011;68476;42.710;23.388;2023-04-15T11:25:56;4.18;;;2.10;;
79074;SDS011;68476;42.710;23.388;2023-04-15T11:28:24;3.63;;;2.00;;
79074;SDS011;68476;42.710;23.388;2023-04-15T11:30:49;3.17;;;1.77;;
79074;SDS011;68476;42.710;23.388;2023-04-15T11:33:15;3.90;;;1.63;;
79074;SDS011;68476;42.710;23.388;2023-04-15T11:35:40;3.00;;;1.60;;
79074;SDS011;68476;42.710;23.388;2023-04-15T11:38:10;3.20;;;1.63;;
79074;SDS011;68476;42.710;23.388;2023-04-15T11:40:39;3.75;;;1.70;;
79074;SDS011;68476;42.710;23.388;2023-04-15T11:43:11;4.25;;;1.80;;
79074;SDS011;68476;42.710;23.388;2023-04-15T11:45:46;2.85;;;1.60;;
79074;SDS011;68476;42.710;23.388;2023-04-15T11:48:12;4.15;;;1.80;;
79074;SDS011;68476;42.710;23.388;2023-04-15T11:50:37;6.90;;;3.97;;
79074;SDS011;68476;42.710;23.388;2023-04-15T11:53:05;3.28;;;1.60;;
79074;SDS011;68476;42.710;23.388;2023-04-15T11:55:40;2.20;;;1.50;;
79074;SDS011;68476;42.710;23.388;2023-04-15T11:58:16;2.65;;;1.48;;
79074;SDS011;68476;42.710;23.388;2023-04-15T12:01:00;3.85;;;1.73;;
79074;SDS011;68476;42.710;23.388;2023-04-15T12:13:52;3.05;;;1.60;;
79074;SDS011;68476;42.710;23.388;2023-04-15T12:16:17;3.40;;;1.60;;
79074;SDS011;68476;42.710;23.388;2023-04-15T12:18:53;3.28;;;1.73;;
79074;SDS011;68476;42.710;23.388;2023-04-15T12:21:20;2.35;;;1.40;;
79074;SDS011;68476;42.710;23.388;2023-04-15T12:23:50;3.28;;;1.58;;
79074;SDS011;68476;42.710;23.388;2023-04-15T12:26:15;2.97;;;1.55;;
79074;SDS011;68476;42.710;23.388;2023-04-15T12:28:41;3.70;;;1.60;;
79074;SDS011;68476;42.710;23.388;2023-04-15T12:31:08;3.13;;;1.60;;
79074;SDS011;68476;42.710;23.388;2023-04-15T12:33:34;2.97;;;1.63;;
79074;SDS011;68476;42.710;23.388;2023-04-15T12:35:59;2.10;;;1.40;;
79074;SDS011;68476;42.710;23.388;2023-04-15T12:38:24;3.78;;;1.60;;
79074;SDS011;68476;42.710;23.388;2023-04-15T12:40:50;2.73;;;1.50;;
79074;SDS011;68476;42.710;23.388;2023-04-15T12:43:15;4.00;;;1.52;;
79074;SDS011;68476;42.710;23.388;2023-04-15T12:45:40;3.47;;;1.43;;
79074;SDS011;68476;42.710;23.388;2023-04-15T12:48:06;2.47;;;1.80;;
79074;SDS011;68476;42.710;23.388;2023-04-15T12:50:34;3.30;;;1.60;;
79074;SDS011;68476;42.710;23.388;2023-04-15T12:52:59;3.53;;;1.80;;
79074;SDS011;68476;42.710;23.388;2023-04-15T12:55:25;2.78;;;1.52;;
79074;SDS011;68476;42.710;23.388;2023-04-15T12:57:50;5.07;;;2.33;;
79074;SDS011;68476;42.710;23.388;2023-04-15T13:00:16;3.00;;;1.50;;
79074;SDS011;68476;42.710;23.388;2023-04-15T13:02:42;3.22;;;1.70;;
79074;SDS011;68476;42.710;23.388;2023-04-15T13:05:07;3.05;;;1.65;;
79074;SDS011;68476;42.710;23.388;2023-04-15T13:07:32;3.00;;;1.48;;
79074;SDS011;68476;42.710;23.388;2023-04-15T13:09:58;2.47;;;1.40;;
79074;SDS011;68476;42.710;23.388;2023-04-15T13:12:23;2.87;;;1.57;;
79074;SDS011;68476;42.710;23.388;2023-04-15T13:14:48;4.27;;;1.60;;
79074;SDS011;68476;42.710;23.388;2023-04-15T13:17:13;4.60;;;1.70;;
79074;SDS011;68476;42.710;23.388;2023-04-15T13:19:39;4.53;;;3.63;;
79074;SDS011;68476;42.710;23.388;2023-04-15T13:22:04;7.10;;;4.82;;
79074;SDS011;68476;42.710;23.388;2023-04-15T13:24:30;6.93;;;3.70;;
79074;SDS011;68476;42.710;23.388;2023-04-15T13:26:56;3.37;;;2.10;;
79074;SDS011;68476;42.710;23.388;2023-04-15T13:29:23;3.70;;;1.60;;
79074;SDS011;68476;42.710;23.388;2023-04-15T13:31:48;3.47;;;2.30;;
79074;SDS011;68476;42.710;23.388;2023-04-15T13:34:13;4.07;;;1.70;;
79074;SDS011;68476;42.710;23.388;2023-04-15T13:36:38;5.30;;;2.00;;
79074;SDS011;68476;42.710;23.388;2023-04-15T13:39:04;3.60;;;1.73;;
79074;SDS011;68476;42.710;23.388;2023-04-15T13:41:29;2.97;;;1.80;;
79074;SDS011;68476;42.710;23.388;2023-04-15T13:43:54;2.60;;;1.50;;
79074;SDS011;68476;42.710;23.388;2023-04-15T13:46:20;2.97;;;1.70;;
79074;SDS011;68476;42.710;23.388;2023-04-15T13:48:45;2.42;;;1.50;;
79074;SDS011;68476;42.710;23.388;2023-04-15T13:51:10;2.53;;;1.70;;
79074;SDS011;68476;42.710;23.388;2023-04-15T13:53:35;4.07;;;1.80;;
79074;SDS011;68476;42.710;23.388;2023-04-15T13:56:00;3.27;;;1.70;;
79074;SDS011;68476;42.710;23.388;2023-04-15T13:58:26;2.17;;;1.33;;
79074;SDS011;68476;42.710;23.388;2023-04-15T14:00:51;2.43;;;1.47;;
79074;SDS011;68476;42.710;23.388;2023-04-15T14:03:16;3.47;;;1.60;;
79074;SDS011;68476;42.710;23.388;2023-04-15T14:05:41;3.10;;;1.80;;
79074;SDS011;68476;42.710;23.388;2023-04-15T14:08:07;3.10;;;1.50;;
79074;SDS011;68476;42.710;23.388;2023-04-15T14:10:32;2.73;;;1.40;;
79074;SDS011;68476;42.710;23.388;2023-04-15T14:12:57;3.10;;;1.40;;
79074;SDS011;68476;42.710;23.388;2023-04-15T14:15:22;3.17;;;1.50;;
79074;SDS011;68476;42.710;23.388;2023-04-15T14:17:48;3.50;;;1.50;;
79074;SDS011;68476;42.710;23.388;2023-04-15T14:20:13;2.10;;;1.20;;
79074;SDS011;68476;42.710;23.388;2023-04-15T14:22:38;2.60;;;2.23;;
79074;SDS011;68476;42.710;23.388;2023-04-15T14:25:04;1.70;;;1.30;;
79074;SDS011;68476;42.710;23.388;2023-04-15T14:27:30;2.70;;;1.35;;
79074;SDS011;68476;42.710;23.388;2023-04-15T14:29:55;2.40;;;1.30;;
79074;SDS011;68476;42.710;23.388;2023-04-15T14:32:21;3.30;;;1.52;;
79074;SDS011;68476;42.710;23.388;2023-04-15T14:34:46;3.20;;;1.83;;
79074;SDS011;68476;42.710;23.388;2023-04-15T14:37:12;2.27;;;1.40;;
79074;SDS011;68476;42.710;23.388;2023-04-15T14:39:37;2.03;;;1.30;;
79074;SDS011;68476;42.710;23.388;2023-04-15T14:42:02;3.22;;;1.40;;
79074;SDS011;68476;42.710;23.388;2023-04-15T14:44:27;3.28;;;1.40;;